Terminal Aerodrome Forecast
Issued by NWS

Home | Current Version | Previous Version | Graphics & Text | Print | Product List | Glossary On
Versions: 1 2 3 4 5 6 7 8 9 10 11 12 13 14 15 16 17 18
344
FTUS43 KIWX 072339
TAFSBN
TAF
KSBN 072339Z 0800/0824 24012KT P6SM SCT025 BKN100
     FM080500 26014KT P6SM SCT010 OVC020
     FM081000 26015G24KT 6SM -SHSN OVC020
     FM081600 27016G25KT 4SM -SHSN OVC015
     FM082200 27014KT 1SM -SHSN BR VV008=

USA.gov is the U.S. government's official web portal to all federal, state and local government web resources and services.